Golden Shanghai — 9HA2862 — position and weather

sailwx.info

Track history (hours):
 
Tides and Currents Weather Stations Pressure Air Temp Water Temp Dewpoint Dewpoint Depression Visibility Wind Speed Wind Dir Waves Ship Positions

Golden Shanghai

Last reported at 2015-Mar-22 12:13 UTC. Time now 2015-Apr-19 12:37 UTC.
Position N 29°03' E 123°04'.
Warning: this ship's position is 28 days out of date.

Length 292 m; draft 8.7 m.

Type: Ship. MMSI: 256456000.

Date/timePositionNaut miles runAvg speedWind from/ knotsBaromVisibWave heightAir tempDewpointWater temp
2015-Mar-22 12:13N 29°03' E 123°04'2613.5
2015-Mar-22 10:18N 29°24' E 123°21'1114.5
2015-Mar-22 09:31N 29°35' E 123°25'1314.0
2015-Mar-22 08:33N 29°44' E 123°36'1713.9
2015-Mar-22 07:20N 29°59' E 123°45'2713.2
2015-Mar-22 05:15N 30°25' E 123°57'913.4
2015-Mar-22 04:33N 30°33' E 123°51'1312.6
2015-Mar-22 03:32N 30°43' E 123°42'1211.9
2015-Mar-22 02:33N 30°53' E 123°34'1211.7
2015-Mar-22 01:33N 30°58' E 123°22'1212.1
2015-Mar-22 00:33N 31°02' E 123°09'1312.8
2015-Mar-21 23:33N 31°04' E 122°54'1313.2
2015-Mar-21 22:33N 31°05' E 122°39'1110.8
2015-Mar-21 21:33N 31°05' E 122°26'1110.8
2015-Mar-21 20:33N 31°09' E 122°14'1413.8
2015-Mar-21 19:34N 31°15' E 121°60'1211.7
2015-Mar-21 18:34N 31°18' E 121°47'6 6.3
2015-Mar-21 17:34N 31°21' E 121°40'5 5.1
2015-Mar-21 16:33N 31°23' E 121°35'6 6.0
2015-Mar-21 15:34N 31°27' E 121°29'6 5.7
2015-Mar-21 14:34N 31°30' E 121°23'0 0.1
2015-Mar-21 13:31N 31°30' E 121°23'0 0.0
2015-Mar-21 12:31N 31°30' E 121°23'0 0.0
2015-Mar-21 11:31N 31°30' E 121°23'0 0.0
2015-Mar-21 10:31N 31°30' E 121°23'0 0.0
2015-Mar-21 09:31N 31°30' E 121°23'0 0.0
2015-Mar-21 08:31N 31°30' E 121°23'0 0.0
2015-Mar-21 07:31N 31°30' E 121°23'0 0.0
2015-Mar-21 06:31N 31°30' E 121°23'0 0.0
2015-Mar-21 05:31N 31°30' E 121°23'0 0.0
2015-Mar-21 04:31N 31°30' E 121°23'0 0.0
2015-Mar-21 03:31N 31°30' E 121°23'0 0.0
2015-Mar-21 02:31N 31°30' E 121°23'0 0.0
2015-Mar-21 01:31N 31°30' E 121°23'0 0.0
2015-Mar-21 00:28N 31°30' E 121°23'0 0.0
2015-Mar-20 23:31N 31°30' E 121°23'0 0.0
2015-Mar-20 22:31N 31°30' E 121°23'0 0.0
2015-Mar-20 21:31N 31°30' E 121°23'0 0.0
2015-Mar-20 20:31N 31°30' E 121°23'0 0.0
2015-Mar-20 19:31N 31°30' E 121°23'0 0.0
2015-Mar-20 18:31N 31°30' E 121°23'0 0.0
2015-Mar-20 17:31N 31°30' E 121°23'0 0.0
2015-Mar-20 16:31N 31°30' E 121°23'0 0.0
2015-Mar-20 15:31N 31°30' E 121°23'0 0.0
2015-Mar-20 14:31N 31°30' E 121°23'0 0.0
2015-Mar-20 13:31N 31°30' E 121°23'0 0.0
2015-Mar-20 12:31N 31°30' E 121°23'0 0.0
2015-Mar-20 11:31N 31°30' E 121°23'0 0.0
2015-Mar-20 10:31N 31°30' E 121°23'0 0.0
2015-Mar-20 09:31N 31°30' E 121°23'0 0.0
2015-Mar-20 08:31N 31°30' E 121°23'0 0.0
2015-Mar-20 07:25N 31°30' E 121°23'0 0.0
2015-Mar-20 06:25N 31°30' E 121°23'0 0.3
2015-Mar-20 05:33N 31°30' E 121°23'9 8.7
2015-Mar-20 04:33N 31°25' E 121°32'1010.1
2015-Mar-20 03:33N 31°20' E 121°42'1212.1
2015-Mar-20 02:34N 31°16' E 121°55'1010.1
2015-Mar-20 01:34N 31°13' E 122°07'9 9.1
2015-Mar-20 00:33N 31°08' E 122°16'10 9.9
2015-Mar-19 23:33N 31°06' E 122°27'7 6.7
2015-Mar-19 22:33N 31°06' E 122°35'6 4.9
2015-Mar-19 21:24N 31°03' E 122°40'0 0.3
2015-Mar-19 20:33N 31°03' E 122°40'0 0.1
2015-Mar-19 16:33N 31°04' E 122°40'0 0.1
2015-Mar-19 15:24N 31°04' E 122°40'0 0.1
2015-Mar-19 14:33N 31°04' E 122°40'0 0.1
2015-Mar-19 13:30N 31°04' E 122°40'0 0.1
2015-Mar-19 12:30N 31°04' E 122°40'0 0.1
2015-Mar-19 11:24N 31°04' E 122°40'0 0.1
2015-Mar-19 10:33N 31°03' E 122°40'0 0.1
2015-Mar-19 09:27N 31°03' E 122°40'0 0.1
2015-Mar-19 08:27N 31°03' E 122°40'0 0.1
2015-Mar-19 07:33N 31°03' E 122°40'0 0.1
2015-Mar-19 06:12N 31°04' E 122°40'0 0.0
2015-Mar-19 05:27N 31°04' E 122°40'0 0.1
2015-Mar-19 03:27N 31°04' E 122°40'2 0.7
2015-Mar-19 01:19N 31°04' E 122°39'4 4.4
2015-Mar-19 00:23N 31°04' E 122°34'6 3.2
2015-Mar-18 22:33N 31°07' E 122°28'6 5.0
2015-Mar-18 21:27N 31°07' E 122°34'3 2.8
2015-Mar-18 20:27N 31°04' E 122°35'2 2.7
2015-Mar-18 19:33N 31°02' E 122°36'1 0.1
2015-Mar-18 12:31N 31°03' E 122°35'0 0.1
2015-Mar-18 11:16N 31°03' E 122°35'0 0.1
2015-Mar-18 10:25N 31°03' E 122°35'0 0.1
2015-Mar-18 09:28N 31°03' E 122°35'0 0.0
2015-Mar-17 23:13N 31°03' E 122°35'0 0.1
2015-Mar-17 22:16N 31°03' E 122°35'0 0.1
2015-Mar-17 20:31N 31°03' E 122°35'0 0.1
2015-Mar-17 18:31N 31°03' E 122°35'0 0.0
2015-Mar-17 10:19N 31°03' E 122°35'0 0.1
2015-Mar-17 08:22N 31°03' E 122°35'0 0.1
2015-Mar-17 07:16N 31°03' E 122°35'0 0.1
2015-Mar-17 03:28N 31°03' E 122°35'0 0.1
2015-Mar-17 00:31N 31°03' E 122°35'0 0.1
2015-Mar-16 23:31N 31°03' E 122°35'0 0.1
2015-Mar-16 22:31N 31°03' E 122°35'0 0.1
2015-Mar-16 21:28N 31°03' E 122°35'0 0.1
2015-Mar-16 19:25N 31°03' E 122°35'0 0.0
2015-Mar-16 11:31N 31°03' E 122°35'0 0.1
2015-Mar-16 09:28N 31°03' E 122°35'0 0.1
2015-Mar-16 07:25N 31°03' E 122°35'0 0.2
2015-Mar-16 06:10N 31°03' E 122°35'0 0.1
2015-Mar-16 05:28N 31°03' E 122°35'0 0.1
2015-Mar-16 04:31N 31°03' E 122°35'0 0.1
2015-Mar-16 02:13N 31°03' E 122°35'2 3.3
2015-Mar-16 01:33N 31°01' E 122°34'10 9.7
2015-Mar-16 00:33N 30°51' E 122°34'4 4.2
2015-Mar-15 23:32N 30°48' E 122°38'0 0.0
2015-Mar-15 22:29N 30°48' E 122°38'0 0.0
2015-Mar-15 21:32N 30°48' E 122°38'0 0.0
2015-Mar-15 20:20N 30°48' E 122°38'0 0.1
2015-Mar-15 19:29N 30°48' E 122°38'0 0.0
2015-Mar-15 18:11N 30°48' E 122°38'0 0.0
2015-Mar-15 17:32N 30°48' E 122°38'0 0.0
2015-Mar-15 16:29N 30°48' E 122°38'0 0.0
2015-Mar-15 14:26N 30°48' E 122°38'0 0.0
2015-Mar-15 13:08N 30°48' E 122°38'0 0.0
2015-Mar-15 12:20N 30°48' E 122°38'0 0.0
2015-Mar-15 11:29N 30°48' E 122°38'0 0.0
2015-Mar-15 09:08N 30°48' E 122°38'0 0.5
2015-Mar-15 08:31N 30°48' E 122°37'2 1.6
2015-Mar-15 07:31N 30°47' E 122°36'0 0.1
2015-Mar-15 06:31N 30°47' E 122°36'0 0.2
2015-Mar-15 05:25N 30°47' E 122°36'0 0.1
2015-Mar-15 04:25N 30°47' E 122°36'0 0.1
2015-Mar-15 03:13N 30°47' E 122°36'0 0.3
2015-Mar-15 02:29N 30°48' E 122°36'3 3.2
2015-Mar-15 01:33N 30°50' E 122°35'63 6.1
2015-Mar-14 15:10N 29°52' E 123°03'13 7.2
2015-Mar-14 13:20N 29°43' E 122°53'1010.0
2015-Mar-14 12:22N 29°43' E 122°42'7 9.1
2015-Mar-14 11:33N 29°40' E 122°33'1110.6
2015-Mar-14 10:33N 29°43' E 122°22'1110.3
2015-Mar-14 09:32N 29°50' E 122°13'9 9.1
2015-Mar-14 08:32N 29°55' E 122°04'8 8.7
2015-Mar-14 07:33N 29°57' E 121°54'1 1.3
2015-Mar-14 06:31N 29°57' E 121°53'0 0.2
2015-Mar-14 05:07N 29°57' E 121°53'0 0.0
2015-Mar-14 04:25N 29°57' E 121°53'0 0.0
2015-Mar-14 02:13N 29°57' E 121°53'0 0.1
2015-Mar-14 01:31N 29°57' E 121°53'0 0.1
2015-Mar-14 00:31N 29°57' E 121°53'0 0.0
2015-Mar-13 23:31N 29°57' E 121°53'0 0.1
2015-Mar-13 22:31N 29°57' E 121°53'0 0.2
2015-Mar-13 21:25N 29°57' E 121°53'0 0.2
2015-Mar-13 20:31N 29°57' E 121°53'0 0.1
2015-Mar-13 19:31N 29°57' E 121°53'0 0.0
2015-Mar-13 18:31N 29°57' E 121°53'0 0.0
2015-Mar-13 17:31N 29°57' E 121°53'0 0.3
2015-Mar-13 16:31N 29°57' E 121°53'0 0.1
2015-Mar-13 15:25N 29°57' E 121°53'0 0.0
2015-Mar-13 13:13N 29°57' E 121°53'0 0.3
2015-Mar-13 12:31N 29°57' E 121°53'1 1.0
2015-Mar-13 11:32N 29°56' E 121°53'0 0.0
2015-Mar-13 10:26N 29°56' E 121°53'0 0.0
2015-Mar-13 07:20N 29°56' E 121°53'0 0.0
2015-Mar-13 06:26N 29°56' E 121°53'0 0.0
2015-Mar-13 05:32N 29°56' E 121°53'0 0.0
2015-Mar-13 04:20N 29°56' E 121°53'0 0.0
2015-Mar-13 03:20N 29°56' E 121°53'0 0.0
2015-Mar-13 02:32N 29°56' E 121°53'0 0.0
2015-Mar-13 01:32N 29°56' E 121°53'0 0.0
2015-Mar-13 00:32N 29°56' E 121°53'0 0.0
2015-Mar-12 23:26N 29°56' E 121°53'0 0.0
2015-Mar-12 22:32N 29°56' E 121°53'0 0.0
2015-Mar-12 21:32N 29°56' E 121°53'0 0.0
2015-Mar-12 20:32N 29°56' E 121°53'0 0.0
2015-Mar-12 19:20N 29°56' E 121°53'0 0.0
2015-Mar-12 18:26N 29°56' E 121°53'0 0.0
2015-Mar-12 17:32N 29°56' E 121°53'0 0.0
2015-Mar-12 16:08N 29°56' E 121°53'0 0.0
2015-Mar-12 15:08N 29°56' E 121°53'0 0.0
2015-Mar-12 14:14N 29°56' E 121°53'0 0.0
2015-Mar-12 13:20N 29°56' E 121°53'0 0.1
2015-Mar-12 12:34N 29°56' E 121°53'  
Track history (hours):
 
Tides and Currents Weather Stations Pressure Air Temp Water Temp Dewpoint Dewpoint Depression Visibility Wind Speed Wind Dir Waves Ship Positions

Golden Shanghai

Last reported at 2015-Mar-22 12:13 UTC. Time now 2015-Apr-19 12:37 UTC.
Position N 29°03' E 123°04'.
Warning: this ship's position is 28 days out of date.

Length 292 m; draft 8.7 m.

Type: Ship. MMSI: 256456000.

Date/timePositionNaut miles runAvg speedWind from/ knotsBaromVisibWave heightAir tempDewpointWater temp
2015-Mar-22 12:13N 29°03' E 123°04'2613.5
2015-Mar-22 10:18N 29°24' E 123°21'1114.5
2015-Mar-22 09:31N 29°35' E 123°25'1314.0
2015-Mar-22 08:33N 29°44' E 123°36'1713.9
2015-Mar-22 07:20N 29°59' E 123°45'2713.2
2015-Mar-22 05:15N 30°25' E 123°57'913.4
2015-Mar-22 04:33N 30°33' E 123°51'1312.6
2015-Mar-22 03:32N 30°43' E 123°42'1211.9
2015-Mar-22 02:33N 30°53' E 123°34'1211.7
2015-Mar-22 01:33N 30°58' E 123°22'1212.1
2015-Mar-22 00:33N 31°02' E 123°09'1312.8
2015-Mar-21 23:33N 31°04' E 122°54'1313.2
2015-Mar-21 22:33N 31°05' E 122°39'1110.8
2015-Mar-21 21:33N 31°05' E 122°26'1110.8
2015-Mar-21 20:33N 31°09' E 122°14'1413.8
2015-Mar-21 19:34N 31°15' E 121°60'1211.7
2015-Mar-21 18:34N 31°18' E 121°47'6 6.3
2015-Mar-21 17:34N 31°21' E 121°40'5 5.1
2015-Mar-21 16:33N 31°23' E 121°35'6 6.0
2015-Mar-21 15:34N 31°27' E 121°29'6 5.7
2015-Mar-21 14:34N 31°30' E 121°23'0 0.1
2015-Mar-21 13:31N 31°30' E 121°23'0 0.0
2015-Mar-21 12:31N 31°30' E 121°23'0 0.0
2015-Mar-21 11:31N 31°30' E 121°23'0 0.0
2015-Mar-21 10:31N 31°30' E 121°23'0 0.0
2015-Mar-21 09:31N 31°30' E 121°23'0 0.0
2015-Mar-21 08:31N 31°30' E 121°23'0 0.0
2015-Mar-21 07:31N 31°30' E 121°23'0 0.0
2015-Mar-21 06:31N 31°30' E 121°23'0 0.0
2015-Mar-21 05:31N 31°30' E 121°23'0 0.0
2015-Mar-21 04:31N 31°30' E 121°23'0 0.0
2015-Mar-21 03:31N 31°30' E 121°23'0 0.0
2015-Mar-21 02:31N 31°30' E 121°23'0 0.0
2015-Mar-21 01:31N 31°30' E 121°23'0 0.0
2015-Mar-21 00:28N 31°30' E 121°23'0 0.0
2015-Mar-20 23:31N 31°30' E 121°23'0 0.0
2015-Mar-20 22:31N 31°30' E 121°23'0 0.0
2015-Mar-20 21:31N 31°30' E 121°23'0 0.0
2015-Mar-20 20:31N 31°30' E 121°23'0 0.0
2015-Mar-20 19:31N 31°30' E 121°23'0 0.0
2015-Mar-20 18:31N 31°30' E 121°23'0 0.0
2015-Mar-20 17:31N 31°30' E 121°23'0 0.0
2015-Mar-20 16:31N 31°30' E 121°23'0 0.0
2015-Mar-20 15:31N 31°30' E 121°23'0 0.0
2015-Mar-20 14:31N 31°30' E 121°23'0 0.0
2015-Mar-20 13:31N 31°30' E 121°23'0 0.0
2015-Mar-20 12:31N 31°30' E 121°23'0 0.0
2015-Mar-20 11:31N 31°30' E 121°23'0 0.0
2015-Mar-20 10:31N 31°30' E 121°23'0 0.0
2015-Mar-20 09:31N 31°30' E 121°23'0 0.0
2015-Mar-20 08:31N 31°30' E 121°23'0 0.0
2015-Mar-20 07:25N 31°30' E 121°23'0 0.0
2015-Mar-20 06:25N 31°30' E 121°23'0 0.3
2015-Mar-20 05:33N 31°30' E 121°23'9 8.7
2015-Mar-20 04:33N 31°25' E 121°32'1010.1
2015-Mar-20 03:33N 31°20' E 121°42'1212.1
2015-Mar-20 02:34N 31°16' E 121°55'1010.1
2015-Mar-20 01:34N 31°13' E 122°07'9 9.1
2015-Mar-20 00:33N 31°08' E 122°16'10 9.9
2015-Mar-19 23:33N 31°06' E 122°27'7 6.7
2015-Mar-19 22:33N 31°06' E 122°35'6 4.9
2015-Mar-19 21:24N 31°03' E 122°40'0 0.3
2015-Mar-19 20:33N 31°03' E 122°40'0 0.1
2015-Mar-19 16:33N 31°04' E 122°40'0 0.1
2015-Mar-19 15:24N 31°04' E 122°40'0 0.1
2015-Mar-19 14:33N 31°04' E 122°40'0 0.1
2015-Mar-19 13:30N 31°04' E 122°40'0 0.1
2015-Mar-19 12:30N 31°04' E 122°40'0 0.1
2015-Mar-19 11:24N 31°04' E 122°40'0 0.1
2015-Mar-19 10:33N 31°03' E 122°40'0 0.1
2015-Mar-19 09:27N 31°03' E 122°40'0 0.1
2015-Mar-19 08:27N 31°03' E 122°40'0 0.1
2015-Mar-19 07:33N 31°03' E 122°40'0 0.1
2015-Mar-19 06:12N 31°04' E 122°40'0 0.0
2015-Mar-19 05:27N 31°04' E 122°40'0 0.1
2015-Mar-19 03:27N 31°04' E 122°40'2 0.7
2015-Mar-19 01:19N 31°04' E 122°39'4 4.4
2015-Mar-19 00:23N 31°04' E 122°34'6 3.2
2015-Mar-18 22:33N 31°07' E 122°28'6 5.0
2015-Mar-18 21:27N 31°07' E 122°34'3 2.8
2015-Mar-18 20:27N 31°04' E 122°35'2 2.7
2015-Mar-18 19:33N 31°02' E 122°36'1 0.1
2015-Mar-18 12:31N 31°03' E 122°35'0 0.1
2015-Mar-18 11:16N 31°03' E 122°35'0 0.1
2015-Mar-18 10:25N 31°03' E 122°35'0 0.1
2015-Mar-18 09:28N 31°03' E 122°35'0 0.0
2015-Mar-17 23:13N 31°03' E 122°35'0 0.1
2015-Mar-17 22:16N 31°03' E 122°35'0 0.1
2015-Mar-17 20:31N 31°03' E 122°35'0 0.1
2015-Mar-17 18:31N 31°03' E 122°35'0 0.0
2015-Mar-17 10:19N 31°03' E 122°35'0 0.1
2015-Mar-17 08:22N 31°03' E 122°35'0 0.1
2015-Mar-17 07:16N 31°03' E 122°35'0 0.1
2015-Mar-17 03:28N 31°03' E 122°35'0 0.1
2015-Mar-17 00:31N 31°03' E 122°35'0 0.1
2015-Mar-16 23:31N 31°03' E 122°35'0 0.1
2015-Mar-16 22:31N 31°03' E 122°35'0 0.1
2015-Mar-16 21:28N 31°03' E 122°35'0 0.1
2015-Mar-16 19:25N 31°03' E 122°35'0 0.0
2015-Mar-16 11:31N 31°03' E 122°35'0 0.1
2015-Mar-16 09:28N 31°03' E 122°35'0 0.1
2015-Mar-16 07:25N 31°03' E 122°35'0 0.2
2015-Mar-16 06:10N 31°03' E 122°35'0 0.1
2015-Mar-16 05:28N 31°03' E 122°35'0 0.1
2015-Mar-16 04:31N 31°03' E 122°35'0 0.1
2015-Mar-16 02:13N 31°03' E 122°35'2 3.3
2015-Mar-16 01:33N 31°01' E 122°34'10 9.7
2015-Mar-16 00:33N 30°51' E 122°34'4 4.2
2015-Mar-15 23:32N 30°48' E 122°38'0 0.0
2015-Mar-15 22:29N 30°48' E 122°38'0 0.0
2015-Mar-15 21:32N 30°48' E 122°38'0 0.0
2015-Mar-15 20:20N 30°48' E 122°38'0 0.1
2015-Mar-15 19:29N 30°48' E 122°38'0 0.0
2015-Mar-15 18:11N 30°48' E 122°38'0 0.0
2015-Mar-15 17:32N 30°48' E 122°38'0 0.0
2015-Mar-15 16:29N 30°48' E 122°38'0 0.0
2015-Mar-15 14:26N 30°48' E 122°38'0 0.0
2015-Mar-15 13:08N 30°48' E 122°38'0 0.0
2015-Mar-15 12:20N 30°48' E 122°38'0 0.0
2015-Mar-15 11:29N 30°48' E 122°38'0 0.0
2015-Mar-15 09:08N 30°48' E 122°38'0 0.5
2015-Mar-15 08:31N 30°48' E 122°37'2 1.6
2015-Mar-15 07:31N 30°47' E 122°36'0 0.1
2015-Mar-15 06:31N 30°47' E 122°36'0 0.2
2015-Mar-15 05:25N 30°47' E 122°36'0 0.1
2015-Mar-15 04:25N 30°47' E 122°36'0 0.1
2015-Mar-15 03:13N 30°47' E 122°36'0 0.3
2015-Mar-15 02:29N 30°48' E 122°36'3 3.2
2015-Mar-15 01:33N 30°50' E 122°35'63 6.1
2015-Mar-14 15:10N 29°52' E 123°03'13 7.2
2015-Mar-14 13:20N 29°43' E 122°53'1010.0
2015-Mar-14 12:22N 29°43' E 122°42'7 9.1
2015-Mar-14 11:33N 29°40' E 122°33'1110.6
2015-Mar-14 10:33N 29°43' E 122°22'1110.3
2015-Mar-14 09:32N 29°50' E 122°13'9 9.1
2015-Mar-14 08:32N 29°55' E 122°04'8 8.7
2015-Mar-14 07:33N 29°57' E 121°54'1 1.3
2015-Mar-14 06:31N 29°57' E 121°53'0 0.2
2015-Mar-14 05:07N 29°57' E 121°53'0 0.0
2015-Mar-14 04:25N 29°57' E 121°53'0 0.0
2015-Mar-14 02:13N 29°57' E 121°53'0 0.1
2015-Mar-14 01:31N 29°57' E 121°53'0 0.1
2015-Mar-14 00:31N 29°57' E 121°53'0 0.0
2015-Mar-13 23:31N 29°57' E 121°53'0 0.1
2015-Mar-13 22:31N 29°57' E 121°53'0 0.2
2015-Mar-13 21:25N 29°57' E 121°53'0 0.2
2015-Mar-13 20:31N 29°57' E 121°53'0 0.1
2015-Mar-13 19:31N 29°57' E 121°53'0 0.0
2015-Mar-13 18:31N 29°57' E 121°53'0 0.0
2015-Mar-13 17:31N 29°57' E 121°53'0 0.3
2015-Mar-13 16:31N 29°57' E 121°53'0 0.1
2015-Mar-13 15:25N 29°57' E 121°53'0 0.0
2015-Mar-13 13:13N 29°57' E 121°53'0 0.3
2015-Mar-13 12:31N 29°57' E 121°53'1 1.0
2015-Mar-13 11:32N 29°56' E 121°53'0 0.0
2015-Mar-13 10:26N 29°56' E 121°53'0 0.0
2015-Mar-13 07:20N 29°56' E 121°53'0 0.0
2015-Mar-13 06:26N 29°56' E 121°53'0 0.0
2015-Mar-13 05:32N 29°56' E 121°53'0 0.0
2015-Mar-13 04:20N 29°56' E 121°53'0 0.0
2015-Mar-13 03:20N 29°56' E 121°53'0 0.0
2015-Mar-13 02:32N 29°56' E 121°53'0 0.0
2015-Mar-13 01:32N 29°56' E 121°53'0 0.0
2015-Mar-13 00:32N 29°56' E 121°53'0 0.0
2015-Mar-12 23:26N 29°56' E 121°53'0 0.0
2015-Mar-12 22:32N 29°56' E 121°53'0 0.0
2015-Mar-12 21:32N 29°56' E 121°53'0 0.0
2015-Mar-12 20:32N 29°56' E 121°53'0 0.0
2015-Mar-12 19:20N 29°56' E 121°53'0 0.0
2015-Mar-12 18:26N 29°56' E 121°53'0 0.0
2015-Mar-12 17:32N 29°56' E 121°53'0 0.0
2015-Mar-12 16:08N 29°56' E 121°53'0 0.0
2015-Mar-12 15:08N 29°56' E 121°53'0 0.0
2015-Mar-12 14:14N 29°56' E 121°53'0 0.0
2015-Mar-12 13:20N 29°56' E 121°53'0 0.1
2015-Mar-12 12:34N 29°56' E 121°53'  

Dump ship's entire track history